sensor_id;sensor_type;location;lat;lon;timestamp;P1;durP1;ratioP1;P2;durP2;ratioP2
68938;SDS011;59064;45.294;11.816;2023-05-14T00:00:18;7.00;;;4.80;;
68938;SDS011;59064;45.294;11.816;2023-05-14T00:02:44;7.70;;;5.40;;
68938;SDS011;59064;45.294;11.816;2023-05-14T00:05:10;9.10;;;5.30;;
68938;SDS011;59064;45.294;11.816;2023-05-14T00:07:35;8.40;;;4.90;;
68938;SDS011;59064;45.294;11.816;2023-05-14T00:10:01;8.00;;;5.00;;
68938;SDS011;59064;45.294;11.816;2023-05-14T00:12:26;7.30;;;5.00;;
68938;SDS011;59064;45.294;11.816;2023-05-14T00:14:52;8.10;;;5.40;;
68938;SDS011;59064;45.294;11.816;2023-05-14T00:17:18;6.20;;;4.60;;
68938;SDS011;59064;45.294;11.816;2023-05-14T00:19:43;6.90;;;4.90;;
68938;SDS011;59064;45.294;11.816;2023-05-14T00:22:09;5.60;;;4.10;;
68938;SDS011;59064;45.294;11.816;2023-05-14T00:24:35;6.50;;;4.40;;
68938;SDS011;59064;45.294;11.816;2023-05-14T00:27:01;6.20;;;4.30;;
68938;SDS011;59064;45.294;11.816;2023-05-14T00:29:29;5.90;;;4.30;;
68938;SDS011;59064;45.294;11.816;2023-05-14T00:31:54;6.90;;;4.00;;
68938;SDS011;59064;45.294;11.816;2023-05-14T00:34:20;6.60;;;3.70;;
68938;SDS011;59064;45.294;11.816;2023-05-14T00:36:45;7.80;;;3.70;;
68938;SDS011;59064;45.294;11.816;2023-05-14T00:39:12;6.10;;;3.60;;
68938;SDS011;59064;45.294;11.816;2023-05-14T00:41:38;6.90;;;3.40;;
68938;SDS011;59064;45.294;11.816;2023-05-14T00:44:03;8.50;;;4.20;;
68938;SDS011;59064;45.294;11.816;2023-05-14T00:46:29;5.70;;;4.00;;
68938;SDS011;59064;45.294;11.816;2023-05-14T00:48:55;6.90;;;4.70;;
68938;SDS011;59064;45.294;11.816;2023-05-14T00:51:21;7.20;;;4.20;;
68938;SDS011;59064;45.294;11.816;2023-05-14T00:53:47;7.40;;;4.40;;
68938;SDS011;59064;45.294;11.816;2023-05-14T00:56:13;6.70;;;3.60;;
68938;SDS011;59064;45.294;11.816;2023-05-14T00:58:39;6.90;;;3.90;;
68938;SDS011;59064;45.294;11.816;2023-05-14T01:01:05;6.80;;;4.10;;
68938;SDS011;59064;45.294;11.816;2023-05-14T01:03:31;8.50;;;5.00;;
68938;SDS011;59064;45.294;11.816;2023-05-14T01:09:02;8.70;;;5.60;;
68938;SDS011;59064;45.294;11.816;2023-05-14T01:14:18;7.70;;;4.50;;
68938;SDS011;59064;45.294;11.816;2023-05-14T01:16:51;7.40;;;4.50;;
68938;SDS011;59064;45.294;11.816;2023-05-14T01:19:38;8.70;;;4.60;;
68938;SDS011;59064;45.294;11.816;2023-05-14T01:22:05;7.80;;;4.70;;
68938;SDS011;59064;45.294;11.816;2023-05-14T01:24:31;7.70;;;4.60;;
68938;SDS011;59064;45.294;11.816;2023-05-14T01:26:58;8.10;;;4.70;;
68938;SDS011;59064;45.294;11.816;2023-05-14T01:29:30;8.30;;;4.20;;
68938;SDS011;59064;45.294;11.816;2023-05-14T01:31:58;9.10;;;4.70;;
68938;SDS011;59064;45.294;11.816;2023-05-14T01:34:25;9.90;;;5.50;;
68938;SDS011;59064;45.294;11.816;2023-05-14T01:36:55;9.70;;;5.40;;
68938;SDS011;59064;45.294;11.816;2023-05-14T01:39:22;10.50;;;5.70;;
68938;SDS011;59064;45.294;11.816;2023-05-14T01:41:49;11.90;;;7.40;;
68938;SDS011;59064;45.294;11.816;2023-05-14T01:44:16;14.00;;;7.40;;
68938;SDS011;59064;45.294;11.816;2023-05-14T01:46:42;15.00;;;9.30;;
68938;SDS011;59064;45.294;11.816;2023-05-14T01:49:08;15.40;;;10.30;;
68938;SDS011;59064;45.294;11.816;2023-05-14T01:51:33;19.40;;;8.90;;
68938;SDS011;59064;45.294;11.816;2023-05-14T01:53:59;19.80;;;11.30;;
68938;SDS011;59064;45.294;11.816;2023-05-14T01:56:24;16.50;;;10.70;;
68938;SDS011;59064;45.294;11.816;2023-05-14T01:58:51;20.70;;;12.10;;
68938;SDS011;59064;45.294;11.816;2023-05-14T02:01:16;19.10;;;12.80;;
68938;SDS011;59064;45.294;11.816;2023-05-14T02:03:42;19.70;;;10.70;;
68938;SDS011;59064;45.294;11.816;2023-05-14T02:06:08;16.10;;;10.60;;
68938;SDS011;59064;45.294;11.816;2023-05-14T02:08:34;18.60;;;10.00;;
68938;SDS011;59064;45.294;11.816;2023-05-14T02:11:00;15.40;;;8.80;;
68938;SDS011;59064;45.294;11.816;2023-05-14T02:13:25;16.20;;;9.40;;
68938;SDS011;59064;45.294;11.816;2023-05-14T02:15:51;14.20;;;9.20;;
68938;SDS011;59064;45.294;11.816;2023-05-14T02:18:16;15.90;;;10.30;;
68938;SDS011;59064;45.294;11.816;2023-05-14T02:20:42;16.00;;;9.40;;
68938;SDS011;59064;45.294;11.816;2023-05-14T02:23:08;14.60;;;9.70;;
68938;SDS011;59064;45.294;11.816;2023-05-14T02:25:33;15.70;;;10.80;;
68938;SDS011;59064;45.294;11.816;2023-05-14T02:27:59;17.80;;;11.70;;
68938;SDS011;59064;45.294;11.816;2023-05-14T02:30:24;19.90;;;12.90;;
68938;SDS011;59064;45.294;11.816;2023-05-14T02:32:50;24.00;;;13.00;;
68938;SDS011;59064;45.294;11.816;2023-05-14T02:35:15;17.90;;;11.60;;
68938;SDS011;59064;45.294;11.816;2023-05-14T02:37:41;18.10;;;10.60;;
68938;SDS011;59064;45.294;11.816;2023-05-14T02:40:06;15.80;;;9.90;;
68938;SDS011;59064;45.294;11.816;2023-05-14T02:42:35;16.80;;;10.30;;
68938;SDS011;59064;45.294;11.816;2023-05-14T02:45:00;14.00;;;9.10;;
68938;SDS011;59064;45.294;11.816;2023-05-14T02:47:26;12.50;;;8.30;;
68938;SDS011;59064;45.294;11.816;2023-05-14T02:49:51;9.50;;;6.30;;
68938;SDS011;59064;45.294;11.816;2023-05-14T02:52:17;12.70;;;6.70;;
68938;SDS011;59064;45.294;11.816;2023-05-14T02:54:42;11.80;;;6.50;;
68938;SDS011;59064;45.294;11.816;2023-05-14T02:57:07;9.70;;;5.80;;
68938;SDS011;59064;45.294;11.816;2023-05-14T02:59:33;10.90;;;5.80;;
68938;SDS011;59064;45.294;11.816;2023-05-14T03:01:59;9.50;;;5.20;;
68938;SDS011;59064;45.294;11.816;2023-05-14T03:04:24;9.60;;;6.00;;
68938;SDS011;59064;45.294;11.816;2023-05-14T03:06:50;9.80;;;5.60;;
68938;SDS011;59064;45.294;11.816;2023-05-14T03:09:15;9.90;;;6.00;;
68938;SDS011;59064;45.294;11.816;2023-05-14T03:11:41;10.80;;;6.10;;
68938;SDS011;59064;45.294;11.816;2023-05-14T03:14:06;9.60;;;5.90;;
68938;SDS011;59064;45.294;11.816;2023-05-14T03:16:33;9.90;;;6.00;;
68938;SDS011;59064;45.294;11.816;2023-05-14T03:18:58;10.00;;;5.60;;
68938;SDS011;59064;45.294;11.816;2023-05-14T03:21:24;10.40;;;6.30;;
68938;SDS011;59064;45.294;11.816;2023-05-14T03:23:51;11.70;;;6.50;;
68938;SDS011;59064;45.294;11.816;2023-05-14T03:26:17;9.30;;;5.00;;
68938;SDS011;59064;45.294;11.816;2023-05-14T03:28:43;13.00;;;7.30;;
68938;SDS011;59064;45.294;11.816;2023-05-14T03:31:08;11.30;;;6.90;;
68938;SDS011;59064;45.294;11.816;2023-05-14T03:33:34;11.90;;;6.50;;
68938;SDS011;59064;45.294;11.816;2023-05-14T03:36:00;11.20;;;5.80;;
68938;SDS011;59064;45.294;11.816;2023-05-14T03:38:25;9.80;;;5.80;;
68938;SDS011;59064;45.294;11.816;2023-05-14T03:40:51;8.20;;;5.40;;
68938;SDS011;59064;45.294;11.816;2023-05-14T03:43:16;9.10;;;5.50;;
68938;SDS011;59064;45.294;11.816;2023-05-14T03:45:42;8.70;;;5.00;;
68938;SDS011;59064;45.294;11.816;2023-05-14T03:48:08;7.80;;;4.90;;
68938;SDS011;59064;45.294;11.816;2023-05-14T03:50:33;8.30;;;4.50;;
68938;SDS011;59064;45.294;11.816;2023-05-14T03:52:59;7.30;;;4.40;;
68938;SDS011;59064;45.294;11.816;2023-05-14T03:55:24;7.00;;;3.80;;
68938;SDS011;59064;45.294;11.816;2023-05-14T03:57:50;6.40;;;3.80;;
68938;SDS011;59064;45.294;11.816;2023-05-14T04:00:15;8.90;;;4.00;;
68938;SDS011;59064;45.294;11.816;2023-05-14T04:02:41;7.10;;;3.70;;
68938;SDS011;59064;45.294;11.816;2023-05-14T04:05:07;7.70;;;4.00;;
68938;SDS011;59064;45.294;11.816;2023-05-14T04:07:33;6.40;;;3.70;;
68938;SDS011;59064;45.294;11.816;2023-05-14T04:09:58;7.40;;;3.70;;
68938;SDS011;59064;45.294;11.816;2023-05-14T04:12:25;7.30;;;4.00;;
68938;SDS011;59064;45.294;11.816;2023-05-14T04:14:51;5.90;;;3.50;;
68938;SDS011;59064;45.294;11.816;2023-05-14T04:17:17;5.80;;;3.60;;
68938;SDS011;59064;45.294;11.816;2023-05-14T04:19:42;6.90;;;3.50;;
68938;SDS011;59064;45.294;11.816;2023-05-14T04:22:08;6.80;;;3.40;;
68938;SDS011;59064;45.294;11.816;2023-05-14T04:24:34;6.40;;;3.70;;
68938;SDS011;59064;45.294;11.816;2023-05-14T04:26:59;7.20;;;3.60;;
68938;SDS011;59064;45.294;11.816;2023-05-14T04:29:25;6.20;;;3.30;;
68938;SDS011;59064;45.294;11.816;2023-05-14T04:31:50;5.70;;;2.80;;
68938;SDS011;59064;45.294;11.816;2023-05-14T04:34:16;6.80;;;2.70;;
68938;SDS011;59064;45.294;11.816;2023-05-14T04:36:41;6.40;;;3.00;;
68938;SDS011;59064;45.294;11.816;2023-05-14T04:39:07;6.50;;;2.70;;
68938;SDS011;59064;45.294;11.816;2023-05-14T04:41:34;5.30;;;2.70;;
68938;SDS011;59064;45.294;11.816;2023-05-14T04:43:59;5.70;;;2.90;;
68938;SDS011;59064;45.294;11.816;2023-05-14T04:46:28;4.80;;;2.70;;
68938;SDS011;59064;45.294;11.816;2023-05-14T04:48:54;5.00;;;2.70;;
68938;SDS011;59064;45.294;11.816;2023-05-14T04:51:20;8.10;;;3.00;;
68938;SDS011;59064;45.294;11.816;2023-05-14T04:53:46;6.30;;;2.70;;
68938;SDS011;59064;45.294;11.816;2023-05-14T04:56:11;4.70;;;2.70;;
68938;SDS011;59064;45.294;11.816;2023-05-14T04:58:37;4.30;;;2.50;;
68938;SDS011;59064;45.294;11.816;2023-05-14T05:01:03;5.00;;;3.00;;
68938;SDS011;59064;45.294;11.816;2023-05-14T05:03:30;4.10;;;2.30;;
68938;SDS011;59064;45.294;11.816;2023-05-14T05:05:56;3.90;;;2.30;;
68938;SDS011;59064;45.294;11.816;2023-05-14T05:08:22;4.80;;;2.10;;
68938;SDS011;59064;45.294;11.816;2023-05-14T05:10:47;5.60;;;2.60;;
68938;SDS011;59064;45.294;11.816;2023-05-14T05:13:13;4.50;;;2.60;;
68938;SDS011;59064;45.294;11.816;2023-05-14T05:15:41;4.80;;;2.40;;
68938;SDS011;59064;45.294;11.816;2023-05-14T05:18:07;4.50;;;2.40;;
68938;SDS011;59064;45.294;11.816;2023-05-14T05:20:32;6.00;;;2.30;;
68938;SDS011;59064;45.294;11.816;2023-05-14T05:22:58;5.80;;;2.50;;
68938;SDS011;59064;45.294;11.816;2023-05-14T05:25:24;4.20;;;2.30;;
68938;SDS011;59064;45.294;11.816;2023-05-14T05:27:50;4.20;;;2.20;;
68938;SDS011;59064;45.294;11.816;2023-05-14T05:30:15;4.20;;;2.20;;
68938;SDS011;59064;45.294;11.816;2023-05-14T05:32:41;4.50;;;2.50;;
68938;SDS011;59064;45.294;11.816;2023-05-14T05:35:06;4.60;;;2.10;;
68938;SDS011;59064;45.294;11.816;2023-05-14T05:37:32;4.30;;;2.40;;
68938;SDS011;59064;45.294;11.816;2023-05-14T05:39:58;4.60;;;2.10;;
68938;SDS011;59064;45.294;11.816;2023-05-14T05:42:23;4.30;;;2.20;;
68938;SDS011;59064;45.294;11.816;2023-05-14T05:44:49;5.60;;;2.60;;
68938;SDS011;59064;45.294;11.816;2023-05-14T05:47:14;5.60;;;2.50;;
68938;SDS011;59064;45.294;11.816;2023-05-14T05:49:41;6.10;;;2.50;;
68938;SDS011;59064;45.294;11.816;2023-05-14T05:52:06;5.40;;;2.60;;
68938;SDS011;59064;45.294;11.816;2023-05-14T05:54:32;4.30;;;2.60;;
68938;SDS011;59064;45.294;11.816;2023-05-14T05:56:58;6.50;;;2.40;;
68938;SDS011;59064;45.294;11.816;2023-05-14T05:59:24;4.90;;;2.80;;
68938;SDS011;59064;45.294;11.816;2023-05-14T06:01:50;4.80;;;2.50;;
68938;SDS011;59064;45.294;11.816;2023-05-14T06:04:15;5.40;;;2.90;;
68938;SDS011;59064;45.294;11.816;2023-05-14T06:06:41;4.20;;;2.50;;
68938;SDS011;59064;45.294;11.816;2023-05-14T06:09:06;4.00;;;2.20;;
68938;SDS011;59064;45.294;11.816;2023-05-14T06:11:33;12.60;;;6.10;;
68938;SDS011;59064;45.294;11.816;2023-05-14T06:13:59;7.70;;;4.30;;
68938;SDS011;59064;45.294;11.816;2023-05-14T06:16:24;7.30;;;4.30;;
68938;SDS011;59064;45.294;11.816;2023-05-14T06:18:50;4.90;;;3.20;;
68938;SDS011;59064;45.294;11.816;2023-05-14T06:21:19;4.20;;;2.60;;
68938;SDS011;59064;45.294;11.816;2023-05-14T06:23:45;3.80;;;2.30;;
68938;SDS011;59064;45.294;11.816;2023-05-14T06:26:11;5.10;;;2.30;;
68938;SDS011;59064;45.294;11.816;2023-05-14T06:28:37;5.70;;;2.60;;
68938;SDS011;59064;45.294;11.816;2023-05-14T06:31:02;7.10;;;2.40;;
68938;SDS011;59064;45.294;11.816;2023-05-14T06:33:28;5.30;;;3.10;;
68938;SDS011;59064;45.294;11.816;2023-05-14T06:36:02;5.20;;;2.80;;
68938;SDS011;59064;45.294;11.816;2023-05-14T06:38:29;6.20;;;2.90;;
68938;SDS011;59064;45.294;11.816;2023-05-14T06:40:55;5.60;;;2.70;;
68938;SDS011;59064;45.294;11.816;2023-05-14T06:43:21;4.70;;;2.30;;
68938;SDS011;59064;45.294;11.816;2023-05-14T06:45:50;4.50;;;2.20;;
68938;SDS011;59064;45.294;11.816;2023-05-14T06:48:16;4.70;;;2.60;;
68938;SDS011;59064;45.294;11.816;2023-05-14T06:50:43;4.90;;;2.30;;
68938;SDS011;59064;45.294;11.816;2023-05-14T06:53:12;4.60;;;2.40;;
68938;SDS011;59064;45.294;11.816;2023-05-14T06:55:39;4.80;;;2.50;;
68938;SDS011;59064;45.294;11.816;2023-05-14T06:58:07;5.40;;;2.70;;
68938;SDS011;59064;45.294;11.816;2023-05-14T07:00:33;4.40;;;2.30;;
68938;SDS011;59064;45.294;11.816;2023-05-14T07:02:59;5.00;;;2.20;;
68938;SDS011;59064;45.294;11.816;2023-05-14T07:05:24;5.10;;;2.30;;
68938;SDS011;59064;45.294;11.816;2023-05-14T07:07:50;4.20;;;2.10;;
68938;SDS011;59064;45.294;11.816;2023-05-14T07:10:16;4.30;;;2.20;;
68938;SDS011;59064;45.294;11.816;2023-05-14T07:12:42;4.80;;;2.40;;
68938;SDS011;59064;45.294;11.816;2023-05-14T07:15:08;4.50;;;2.30;;
68938;SDS011;59064;45.294;11.816;2023-05-14T07:17:34;5.20;;;2.20;;
68938;SDS011;59064;45.294;11.816;2023-05-14T07:19:59;4.00;;;2.20;;
68938;SDS011;59064;45.294;11.816;2023-05-14T07:22:25;4.20;;;2.50;;
68938;SDS011;59064;45.294;11.816;2023-05-14T07:24:50;6.00;;;2.60;;
68938;SDS011;59064;45.294;11.816;2023-05-14T07:27:16;5.50;;;2.30;;
68938;SDS011;59064;45.294;11.816;2023-05-14T07:29:42;3.90;;;2.10;;
68938;SDS011;59064;45.294;11.816;2023-05-14T07:32:08;4.80;;;2.30;;
68938;SDS011;59064;45.294;11.816;2023-05-14T07:34:34;5.20;;;2.90;;
68938;SDS011;59064;45.294;11.816;2023-05-14T07:37:00;4.50;;;2.30;;
68938;SDS011;59064;45.294;11.816;2023-05-14T07:39:25;5.00;;;2.50;;
68938;SDS011;59064;45.294;11.816;2023-05-14T07:41:51;4.20;;;2.40;;
68938;SDS011;59064;45.294;11.816;2023-05-14T07:44:18;3.90;;;1.70;;
68938;SDS011;59064;45.294;11.816;2023-05-14T07:46:44;6.00;;;2.40;;
68938;SDS011;59064;45.294;11.816;2023-05-14T07:49:10;5.20;;;2.00;;
68938;SDS011;59064;45.294;11.816;2023-05-14T07:51:36;4.60;;;1.90;;
68938;SDS011;59064;45.294;11.816;2023-05-14T07:54:02;5.10;;;2.30;;
68938;SDS011;59064;45.294;11.816;2023-05-14T07:56:27;4.40;;;2.10;;
68938;SDS011;59064;45.294;11.816;2023-05-14T07:58:53;4.40;;;2.20;;
68938;SDS011;59064;45.294;11.816;2023-05-14T08:01:18;4.70;;;2.10;;
68938;SDS011;59064;45.294;11.816;2023-05-14T08:03:44;5.20;;;2.10;;
68938;SDS011;59064;45.294;11.816;2023-05-14T08:06:10;6.20;;;2.50;;
68938;SDS011;59064;45.294;11.816;2023-05-14T08:08:36;5.40;;;2.20;;
68938;SDS011;59064;45.294;11.816;2023-05-14T08:11:01;3.50;;;2.00;;
68938;SDS011;59064;45.294;11.816;2023-05-14T08:13:28;4.60;;;2.30;;
68938;SDS011;59064;45.294;11.816;2023-05-14T08:15:54;4.80;;;2.50;;
68938;SDS011;59064;45.294;11.816;2023-05-14T08:18:20;5.60;;;2.30;;
68938;SDS011;59064;45.294;11.816;2023-05-14T08:20:45;5.60;;;2.70;;
68938;SDS011;59064;45.294;11.816;2023-05-14T08:23:11;5.20;;;2.40;;
68938;SDS011;59064;45.294;11.816;2023-05-14T08:25:36;4.80;;;2.60;;
68938;SDS011;59064;45.294;11.816;2023-05-14T08:28:02;5.80;;;2.80;;
68938;SDS011;59064;45.294;11.816;2023-05-14T08:30:28;5.70;;;2.80;;
68938;SDS011;59064;45.294;11.816;2023-05-14T08:32:54;4.30;;;2.70;;
68938;SDS011;59064;45.294;11.816;2023-05-14T08:35:20;5.40;;;2.90;;
68938;SDS011;59064;45.294;11.816;2023-05-14T08:37:46;5.90;;;3.10;;
68938;SDS011;59064;45.294;11.816;2023-05-14T08:40:12;6.10;;;2.90;;
68938;SDS011;59064;45.294;11.816;2023-05-14T08:42:38;5.80;;;3.40;;
68938;SDS011;59064;45.294;11.816;2023-05-14T08:45:10;4.70;;;2.80;;
68938;SDS011;59064;45.294;11.816;2023-05-14T08:47:42;6.40;;;3.10;;
68938;SDS011;59064;45.294;11.816;2023-05-14T08:50:12;4.50;;;2.70;;
68938;SDS011;59064;45.294;11.816;2023-05-14T08:52:37;4.60;;;2.50;;
68938;SDS011;59064;45.294;11.816;2023-05-14T08:55:04;6.60;;;2.80;;
68938;SDS011;59064;45.294;11.816;2023-05-14T08:57:30;5.30;;;2.80;;
68938;SDS011;59064;45.294;11.816;2023-05-14T08:59:58;4.60;;;2.40;;
68938;SDS011;59064;45.294;11.816;2023-05-14T09:02:26;5.40;;;2.30;;
68938;SDS011;59064;45.294;11.816;2023-05-14T09:04:54;4.40;;;2.60;;
68938;SDS011;59064;45.294;11.816;2023-05-14T09:07:21;5.50;;;2.40;;
68938;SDS011;59064;45.294;11.816;2023-05-14T09:09:47;3.50;;;2.00;;
68938;SDS011;59064;45.294;11.816;2023-05-14T09:12:14;4.90;;;2.20;;
68938;SDS011;59064;45.294;11.816;2023-05-14T09:14:40;4.10;;;1.90;;
68938;SDS011;59064;45.294;11.816;2023-05-14T09:17:07;3.90;;;1.70;;
68938;SDS011;59064;45.294;11.816;2023-05-14T09:19:32;4.10;;;1.80;;
68938;SDS011;59064;45.294;11.816;2023-05-14T09:21:58;3.50;;;1.70;;
68938;SDS011;59064;45.294;11.816;2023-05-14T09:24:24;3.70;;;1.80;;
68938;SDS011;59064;45.294;11.816;2023-05-14T09:26:52;3.70;;;1.80;;
68938;SDS011;59064;45.294;11.816;2023-05-14T09:29:18;3.70;;;1.80;;
68938;SDS011;59064;45.294;11.816;2023-05-14T09:31:44;4.30;;;1.80;;
68938;SDS011;59064;45.294;11.816;2023-05-14T09:34:10;3.20;;;1.40;;
68938;SDS011;59064;45.294;11.816;2023-05-14T09:36:36;4.40;;;1.40;;
68938;SDS011;59064;45.294;11.816;2023-05-14T09:39:02;2.80;;;1.40;;
68938;SDS011;59064;45.294;11.816;2023-05-14T09:41:28;4.10;;;1.50;;
68938;SDS011;59064;45.294;11.816;2023-05-14T09:43:54;3.80;;;1.20;;
68938;SDS011;59064;45.294;11.816;2023-05-14T09:46:21;3.00;;;1.10;;
68938;SDS011;59064;45.294;11.816;2023-05-14T09:48:48;2.50;;;1.20;;
68938;SDS011;59064;45.294;11.816;2023-05-14T09:51:14;3.20;;;1.20;;
68938;SDS011;59064;45.294;11.816;2023-05-14T09:53:43;2.70;;;1.20;;
68938;SDS011;59064;45.294;11.816;2023-05-14T09:56:08;2.90;;;1.30;;
68938;SDS011;59064;45.294;11.816;2023-05-14T09:58:34;3.70;;;1.40;;
68938;SDS011;59064;45.294;11.816;2023-05-14T10:01:00;4.00;;;1.80;;
68938;SDS011;59064;45.294;11.816;2023-05-14T10:03:26;3.60;;;1.80;;
68938;SDS011;59064;45.294;11.816;2023-05-14T10:05:54;4.10;;;1.70;;
68938;SDS011;59064;45.294;11.816;2023-05-14T10:08:34;3.70;;;1.80;;
68938;SDS011;59064;45.294;11.816;2023-05-14T10:11:05;3.50;;;1.70;;
68938;SDS011;59064;45.294;11.816;2023-05-14T10:13:36;2.80;;;1.50;;
68938;SDS011;59064;45.294;11.816;2023-05-14T10:16:16;3.10;;;1.50;;
68938;SDS011;59064;45.294;11.816;2023-05-14T10:18:46;3.40;;;1.20;;
68938;SDS011;59064;45.294;11.816;2023-05-14T10:21:18;2.90;;;1.10;;
68938;SDS011;59064;45.294;11.816;2023-05-14T10:23:45;3.30;;;1.20;;
68938;SDS011;59064;45.294;11.816;2023-05-14T10:26:12;2.50;;;1.20;;
68938;SDS011;59064;45.294;11.816;2023-05-14T10:28:38;4.60;;;1.60;;
68938;SDS011;59064;45.294;11.816;2023-05-14T10:31:04;4.00;;;1.20;;
68938;SDS011;59064;45.294;11.816;2023-05-14T10:33:29;2.90;;;1.30;;
68938;SDS011;59064;45.294;11.816;2023-05-14T10:36:05;3.20;;;1.50;;
68938;SDS011;59064;45.294;11.816;2023-05-14T10:38:35;3.10;;;1.30;;
68938;SDS011;59064;45.294;11.816;2023-05-14T10:41:12;3.70;;;1.60;;
68938;SDS011;59064;45.294;11.816;2023-05-14T10:43:45;3.90;;;1.40;;
68938;SDS011;59064;45.294;11.816;2023-05-14T10:46:11;3.70;;;1.60;;
68938;SDS011;59064;45.294;11.816;2023-05-14T10:48:38;3.30;;;1.40;;
68938;SDS011;59064;45.294;11.816;2023-05-14T10:51:06;3.90;;;1.50;;
68938;SDS011;59064;45.294;11.816;2023-05-14T10:56:10;3.70;;;1.40;;
68938;SDS011;59064;45.294;11.816;2023-05-14T10:58:38;4.20;;;1.70;;
68938;SDS011;59064;45.294;11.816;2023-05-14T11:01:06;3.00;;;1.30;;
68938;SDS011;59064;45.294;11.816;2023-05-14T11:03:40;3.40;;;1.80;;
68938;SDS011;59064;45.294;11.816;2023-05-14T11:06:07;4.00;;;1.40;;
68938;SDS011;59064;45.294;11.816;2023-05-14T11:08:34;3.40;;;1.60;;
68938;SDS011;59064;45.294;11.816;2023-05-14T11:11:01;3.30;;;1.50;;
68938;SDS011;59064;45.294;11.816;2023-05-14T11:13:26;3.20;;;1.50;;
68938;SDS011;59064;45.294;11.816;2023-05-14T11:15:52;3.80;;;1.50;;
68938;SDS011;59064;45.294;11.816;2023-05-14T11:18:25;3.50;;;1.60;;
68938;SDS011;59064;45.294;11.816;2023-05-14T11:21:00;4.10;;;1.70;;
68938;SDS011;59064;45.294;11.816;2023-05-14T11:23:26;3.30;;;1.60;;
68938;SDS011;59064;45.294;11.816;2023-05-14T11:25:52;3.80;;;1.30;;
68938;SDS011;59064;45.294;11.816;2023-05-14T11:28:22;2.50;;;1.30;;
68938;SDS011;59064;45.294;11.816;2023-05-14T11:30:52;3.10;;;1.50;;
68938;SDS011;59064;45.294;11.816;2023-05-14T11:33:18;3.10;;;1.40;;
68938;SDS011;59064;45.294;11.816;2023-05-14T11:35:44;4.10;;;1.30;;
68938;SDS011;59064;45.294;11.816;2023-05-14T11:38:20;2.60;;;1.20;;
68938;SDS011;59064;45.294;11.816;2023-05-14T11:40:52;3.10;;;1.50;;
68938;SDS011;59064;45.294;11.816;2023-05-14T11:43:18;2.30;;;1.20;;
68938;SDS011;59064;45.294;11.816;2023-05-14T11:45:51;3.10;;;1.40;;
68938;SDS011;59064;45.294;11.816;2023-05-14T11:48:17;3.00;;;1.40;;
68938;SDS011;59064;45.294;11.816;2023-05-14T11:50:44;3.20;;;1.30;;
68938;SDS011;59064;45.294;11.816;2023-05-14T11:53:15;3.90;;;1.60;;
68938;SDS011;59064;45.294;11.816;2023-05-14T11:55:44;3.00;;;1.40;;
68938;SDS011;59064;45.294;11.816;2023-05-14T11:58:11;2.90;;;1.40;;
68938;SDS011;59064;45.294;11.816;2023-05-14T12:00:37;3.80;;;1.20;;
68938;SDS011;59064;45.294;11.816;2023-05-14T12:03:04;3.60;;;1.20;;
68938;SDS011;59064;45.294;11.816;2023-05-14T12:05:29;2.80;;;1.30;;
68938;SDS011;59064;45.294;11.816;2023-05-14T12:07:55;3.40;;;1.40;;
68938;SDS011;59064;45.294;11.816;2023-05-14T12:10:20;2.90;;;1.40;;
68938;SDS011;59064;45.294;11.816;2023-05-14T12:12:46;3.40;;;1.60;;
68938;SDS011;59064;45.294;11.816;2023-05-14T12:15:13;2.80;;;1.40;;
68938;SDS011;59064;45.294;11.816;2023-05-14T12:17:40;3.40;;;1.30;;
68938;SDS011;59064;45.294;11.816;2023-05-14T12:20:09;2.90;;;1.40;;
68938;SDS011;59064;45.294;11.816;2023-05-14T12:22:36;3.00;;;1.40;;
68938;SDS011;59064;45.294;11.816;2023-05-14T12:25:02;3.20;;;1.50;;
68938;SDS011;59064;45.294;11.816;2023-05-14T12:27:28;5.50;;;1.70;;
68938;SDS011;59064;45.294;11.816;2023-05-14T12:30:04;4.40;;;1.70;;
68938;SDS011;59064;45.294;11.816;2023-05-14T12:32:31;3.20;;;1.50;;
68938;SDS011;59064;45.294;11.816;2023-05-14T12:34:57;3.50;;;1.70;;
68938;SDS011;59064;45.294;11.816;2023-05-14T12:37:23;4.80;;;1.70;;
68938;SDS011;59064;45.294;11.816;2023-05-14T12:39:49;2.90;;;1.50;;
68938;SDS011;59064;45.294;11.816;2023-05-14T12:42:14;3.70;;;1.40;;
68938;SDS011;59064;45.294;11.816;2023-05-14T12:44:40;3.40;;;1.50;;
68938;SDS011;59064;45.294;11.816;2023-05-14T12:47:06;3.00;;;1.40;;
68938;SDS011;59064;45.294;11.816;2023-05-14T12:49:32;2.60;;;1.30;;
68938;SDS011;59064;45.294;11.816;2023-05-14T12:51:57;3.20;;;1.50;;
68938;SDS011;59064;45.294;11.816;2023-05-14T12:54:23;4.40;;;1.60;;
68938;SDS011;59064;45.294;11.816;2023-05-14T12:56:48;5.50;;;1.50;;
68938;SDS011;59064;45.294;11.816;2023-05-14T12:59:14;3.60;;;1.40;;
68938;SDS011;59064;45.294;11.816;2023-05-14T13:01:40;3.00;;;1.40;;
68938;SDS011;59064;45.294;11.816;2023-05-14T13:04:06;3.30;;;1.50;;
68938;SDS011;59064;45.294;11.816;2023-05-14T13:06:33;2.70;;;1.30;;
68938;SDS011;59064;45.294;11.816;2023-05-14T13:08:58;3.80;;;1.60;;
68938;SDS011;59064;45.294;11.816;2023-05-14T13:11:27;3.30;;;1.50;;
68938;SDS011;59064;45.294;11.816;2023-05-14T13:13:55;3.20;;;1.60;;
68938;SDS011;59064;45.294;11.816;2023-05-14T13:16:27;3.40;;;1.60;;
68938;SDS011;59064;45.294;11.816;2023-05-14T13:18:53;3.30;;;1.50;;
68938;SDS011;59064;45.294;11.816;2023-05-14T13:21:19;3.90;;;1.70;;
68938;SDS011;59064;45.294;11.816;2023-05-14T13:23:45;4.00;;;1.90;;
68938;SDS011;59064;45.294;11.816;2023-05-14T13:26:11;6.00;;;2.00;;
68938;SDS011;59064;45.294;11.816;2023-05-14T13:28:38;3.20;;;1.60;;
68938;SDS011;59064;45.294;11.816;2023-05-14T13:31:04;4.50;;;1.70;;
68938;SDS011;59064;45.294;11.816;2023-05-14T13:33:35;4.30;;;1.80;;
68938;SDS011;59064;45.294;11.816;2023-05-14T13:36:01;3.30;;;1.60;;
68938;SDS011;59064;45.294;11.816;2023-05-14T13:38:28;3.30;;;1.60;;
68938;SDS011;59064;45.294;11.816;2023-05-14T13:40:53;4.30;;;1.90;;
68938;SDS011;59064;45.294;11.816;2023-05-14T13:43:21;3.50;;;1.60;;
68938;SDS011;59064;45.294;11.816;2023-05-14T13:45:48;2.80;;;1.40;;
68938;SDS011;59064;45.294;11.816;2023-05-14T13:48:14;5.80;;;1.60;;
68938;SDS011;59064;45.294;11.816;2023-05-14T13:50:39;3.20;;;1.60;;
68938;SDS011;59064;45.294;11.816;2023-05-14T13:53:05;3.10;;;1.50;;
68938;SDS011;59064;45.294;11.816;2023-05-14T13:55:31;4.20;;;2.00;;
68938;SDS011;59064;45.294;11.816;2023-05-14T13:57:56;4.90;;;1.90;;
68938;SDS011;59064;45.294;11.816;2023-05-14T14:00:23;3.50;;;1.70;;
68938;SDS011;59064;45.294;11.816;2023-05-14T14:02:50;3.70;;;1.80;;
68938;SDS011;59064;45.294;11.816;2023-05-14T14:05:15;3.40;;;1.40;;
68938;SDS011;59064;45.294;11.816;2023-05-14T14:07:40;3.50;;;1.50;;
68938;SDS011;59064;45.294;11.816;2023-05-14T14:10:07;2.80;;;1.60;;
68938;SDS011;59064;45.294;11.816;2023-05-14T14:12:33;2.90;;;1.50;;
68938;SDS011;59064;45.294;11.816;2023-05-14T14:14:59;2.70;;;1.40;;
68938;SDS011;59064;45.294;11.816;2023-05-14T14:17:26;3.30;;;1.20;;
68938;SDS011;59064;45.294;11.816;2023-05-14T14:19:52;3.40;;;1.50;;
68938;SDS011;59064;45.294;11.816;2023-05-14T14:22:17;5.20;;;1.50;;
68938;SDS011;59064;45.294;11.816;2023-05-14T14:24:43;3.80;;;1.60;;
68938;SDS011;59064;45.294;11.816;2023-05-14T14:27:10;3.00;;;1.40;;
68938;SDS011;59064;45.294;11.816;2023-05-14T14:29:36;3.50;;;1.60;;
68938;SDS011;59064;45.294;11.816;2023-05-14T14:32:02;3.80;;;1.80;;
68938;SDS011;59064;45.294;11.816;2023-05-14T14:34:28;3.30;;;1.30;;
68938;SDS011;59064;45.294;11.816;2023-05-14T14:36:53;3.00;;;1.30;;